Date,TemperatureHighF,TemperatureAvgF,TemperatureLowF,DewpointHighF,DewpointAvgF,DewpointLowF,HumidityHigh,HumidityAvg,HumidityLow,PressureMaxIn,PressureMinIn,WindSpeedMaxMPH,WindSpeedAvgMPH,GustSpeedMaxMPH,PrecipitationSumIn
2013-2-1,25.0,21.7,18.2,14.0,8.1,4.0,73,56,46,30.19,29.72,21,8,30,0.00
2013-2-2,24.9,19.4,12.6,14.0,8.6,4.0,87,64,43,30.26,30.07,14,3,22,0.00
2013-2-3,27.0,18.5,12.4,16.0,13.9,11.0,92,83,59,30.07,29.82,4,0,7,0.00
2013-2-4,23.0,19.9,17.7,17.0,9.3,5.0,92,64,47,30.01,29.82,15,6,25,0.00
2013-2-5,28.3,21.8,15.9,21.0,15.7,13.0,89,78,61,30.06,29.96,3,0,6,0.00
2013-2-6,32.2,25.9,18.6,21.0,13.7,-3.0,93,63,35,30.41,29.96,13,4,26,0.00
2013-2-7,27.7,20.5,12.2,13.0,8.7,5.0,82,62,44,30.57,30.40,11,1,12,0.00
2013-2-8,29.5,25.7,23.2,27.0,21.2,12.0,92,83,62,30.44,29.81,6,0,18,0.00
2013-2-9,25.9,22.3,17.3,20.0,9.2,-1.0,91,60,37,30.35,29.84,22,9,44,0.00
2013-2-10,34.4,16.8,-1.6,13.0,4.9,-5.0,87,63,34,30.54,30.35,5,1,16,0.02
2013-2-11,45.2,33.4,18.9,40.0,28.0,13.0,93,81,44,30.34,29.73,11,1,26,0.11
2013-2-12,38.3,35.4,31.5,29.0,25.5,19.0,71,67,61,30.00,29.75,23,8,36,0.00
2013-2-13,41.9,33.2,29.6,26.0,22.3,19.0,84,65,46,29.97,29.77,10,2,15,0.00
2013-2-14,43.6,30.5,21.3,26.0,23.2,19.0,93,76,46,30.02,29.77,6,1,13,0.00
2013-2-15,49.0,35.9,24.3,30.0,26.3,22.0,93,72,40,30.02,29.95,11,2,16,0.00
2013-2-16,31.8,27.9,23.5,30.0,18.4,9.0,93,69,52,30.01,29.82,9,3,16,0.00
2013-2-17,23.4,18.1,12.2,12.0,2.3,-2.0,63,51,38,29.94,29.69,31,12,43,0.01
2013-2-18,30.0,19.7,11.9,12.0,4.2,0.0,69,52,33,30.23,29.95,27,8,37,0.00
2013-2-19,37.0,27.5,14.3,32.0,21.7,12.0,92,80,51,30.20,29.69,12,1,22,0.08
2013-2-20,34.3,24.3,20.5,27.0,12.6,7.0,77,61,48,29.98,29.72,20,9,37,0.01
2013-2-21,24.8,21.2,19.5,15.0,11.5,9.0,78,66,58,30.42,29.96,20,8,31,0.00
2013-2-22,33.8,27.2,15.8,24.0,19.7,13.0,91,74,59,30.49,30.31,11,1,17,0.00
2013-2-23,34.5,31.8,28.9,33.0,29.5,24.0,93,91,78,30.30,29.89,1,0,3,0.02
2013-2-24,39.3,33.4,29.8,36.0,27.9,20.0,90,80,66,29.99,29.79,18,5,27,0.01
2013-2-25,38.5,33.1,27.0,28.0,25.2,21.0,92,73,59,30.30,30.00,14,2,21,0.00
2013-2-26,41.1,31.6,21.0,29.0,24.9,19.0,93,78,57,30.37,30.08,5,1,12,0.00
2013-2-27,40.3,35.6,28.8,38.0,33.5,27.0,93,92,90,30.07,29.59,11,1,12,1.51
2013-2-28,42.3,35.2,31.8,37.0,32.0,29.0,93,88,69,29.66,29.60,6,0,13,0.06